WARM SPRINGS (USACE) (WRS)

Elevation: 440' · RUSSIAN R basin · Operator: US Army Corps of Engineers

Provisional data, subject to change.
Query executed Tuesday at 8:00:32   clock

Select a sensor type for a plot of data.
Note: Reservoir Flows are daily averages.

Earlier

Date RES ELE    STORAGE    RES CHG    TOC STO    ABV TOC    OUTFLOW    INFLOW    PPT INC    TEMP MN    TEMP MX    EVP PAN   
 FEET   AF   AF   AF   AF   CFS   CFS   INCHES   DEG F   DEG F   INCHES  
05/29/2016 449.04 239751 -182 245000 -5249 84 10 0.00 10 31 0.23
05/30/2016 448.98 239595 -156 245000 -5405 85 24 0.00 9 35 0.24
05/31/2016 448.91 239413 -182 245000 -5587 83 11 0.01 9 38 0.25
06/01/2016 448.84 239231 -182 245000 -5769 84 12 0.00 9 33 0.25
06/02/2016 448.78 239075 -156 245000 -5925 85 32 0.00 11 37 0.33
06/03/2016 448.71 238894 -181 245000 -6106 84 24 0.00 13 41 0.39
06/04/2016 448.64 238712 -182 245000 -6288 85 8 0.00 14 32 0.19
06/05/2016 448.57 238531 -181 245000 -6469 85 19 0.00 10 35 0.32
06/06/2016 448.50 238349 -182 245000 -6651 83 10 0.00 12 27 0.23
06/07/2016 448.43 238168 -181 245000 -6832 82 9 0.00 14 29 0.23
06/08/2016 448.35 237961 -207 245000 -7039 82 -6 0.00 13 32 0.22
06/09/2016 448.28 237780 -181 245000 -7220 83 11 0.00 11 31 0.25
06/10/2016 448.19 237548 -232 245000 -7452 84 -13 0.00 13 30 0.25
06/11/2016 448.12 237367 -181 245000 -7633 84 14 0.03 15 36 0.28
06/12/2016 448.02 237109 -258 245000 -7891 84 -27 0.00 10 31 0.25
06/13/2016 447.95 236928 -181 245000 -8072 82 12 0.00 11 33 0.27
06/14/2016 447.87 236722 -206 245000 -8278 81 -5 0.00 13 26 0.23
06/15/2016 447.78 236490 -232 245000 -8510 81 -21 0.00 11 23 0.19
06/16/2016 447.71 236310 -180 245000 -8690 82 -1 0.00 12 22 0.10
06/17/2016 447.69 236258 -52 245000 -8742 82 66 0.14 13 23 0.12
06/18/2016 447.63 236104 -154 245000 -8896 82 23 0.15 10 31 0.25
06/19/2016 447.57 235949 -155 245000 -9051 81 24 0.04 14 35 0.27
06/20/2016 447.49 235744 -205 245000 -9256 84 1 0.02 9 38 0.27
06/21/2016 447.41 235538 -206 245000 -9462 86 4 0.02 12 40 0.28
06/22/2016 447.34 235358 -180 245000 -9642 85 16 0.00 9 37 0.28
06/23/2016 447.25 235127 -231 245000 -9873 85 -10 0.00 10 35 0.27
06/24/2016 447.18 234948 -179 245000 -10052 85 17 0.00 16 38 0.29
06/25/2016 447.09 234717 -231 245000 -10283 86 -7 0.00 18 41 0.30
06/26/2016 447.01 234512 -205 245000 -10488 87 6 0.00 11 41 0.29
06/27/2016 446.91 234256 -256 245000 -10744 88 -18 0.00 12 41 0.29
06/28/2016 -- -- -- -- -- -- -- -- -- -- --

Later | Latest

Warning! This data is preliminary and subject to revision.

Show WRS Map | Plot WRS Data | 1 Month WRS Data | Real-Time WRS Data | WRS Info